createdAt,value
2023-02-06T00:09:29.201Z,77.40
2023-02-06T00:19:36.323Z,103.20
2023-02-06T00:29:43.512Z,98.80
2023-02-06T00:39:50.652Z,92.40
2023-02-06T00:49:57.767Z,85.40
2023-02-06T01:00:04.079Z,89.80
2023-02-06T01:10:10.004Z,74.20
2023-02-06T01:20:17.386Z,64.50
2023-02-06T01:30:24.723Z,83.10
2023-02-06T01:40:31.936Z,62.90
2023-02-06T01:50:42.979Z,60.30
2023-02-06T02:00:51.863Z,68.50
2023-02-06T02:11:00.110Z,66.50
2023-02-06T02:21:49.995Z,70.10
2023-02-06T02:32:28.213Z,84.50
2023-02-06T02:42:41.268Z,80.20
2023-02-06T02:52:47.709Z,89.10
2023-02-06T03:02:57.319Z,71.10
2023-02-06T03:13:03.272Z,65.30
2023-02-06T03:23:13.190Z,97.10
2023-02-06T03:33:21.004Z,77.30
2023-02-06T03:43:30.837Z,75.50
2023-02-06T03:53:40.184Z,74.90
2023-02-06T04:03:47.456Z,88.70
2023-02-06T04:13:54.576Z,68.60
2023-02-06T04:24:01.871Z,99.80
2023-02-06T04:34:09.257Z,78.00
2023-02-06T04:44:16.450Z,70.20
2023-02-06T04:54:23.784Z,101.80
2023-02-06T05:04:29.805Z,102.40
2023-02-06T05:14:36.837Z,154.00
2023-02-06T05:24:43.855Z,166.60
2023-02-06T05:34:51.141Z,126.80
2023-02-06T05:44:58.539Z,104.80
2023-02-06T05:55:05.847Z,97.20
2023-02-06T06:05:12.848Z,107.40
2023-02-06T06:15:17.872Z,112.10
2023-02-06T06:25:25.002Z,114.70
2023-02-06T06:35:32.409Z,94.00
2023-02-06T06:45:39.863Z,72.80
2023-02-06T06:55:47.735Z,69.90
2023-02-06T07:05:55.091Z,135.00
2023-02-06T07:16:02.378Z,111.80
2023-02-06T07:26:10.193Z,125.00
2023-02-06T07:36:18.638Z,124.30
2023-02-06T07:46:26.938Z,124.60
2023-02-06T07:56:34.096Z,83.60
2023-02-06T08:06:44.088Z,76.90
2023-02-06T08:16:51.889Z,72.70
2023-02-06T08:27:00.231Z,66.00
2023-02-06T08:37:07.678Z,46.20
2023-02-06T08:47:15.080Z,36.40
2023-02-06T08:57:22.248Z,44.80
2023-02-06T09:07:32.158Z,31.20
2023-02-06T09:17:39.690Z,48.30
2023-02-06T09:27:47.608Z,48.70
2023-02-06T09:37:54.815Z,36.20
2023-02-06T09:48:05.272Z,37.30
2023-02-06T09:58:16.270Z,46.20
2023-02-06T10:08:23.343Z,37.10
2023-02-06T10:18:29.046Z,51.80
2023-02-06T10:28:37.153Z,38.70
2023-02-06T10:39:07.997Z,42.10
2023-02-06T10:49:15.534Z,45.50
2023-02-06T10:59:22.720Z,36.40
2023-02-06T11:09:30.955Z,29.20
2023-02-06T11:19:43.062Z,31.20
2023-02-06T11:29:52.378Z,27.80
2023-02-06T11:40:15.756Z,30.70
2023-02-06T11:50:25.029Z,27.50
2023-02-06T12:00:32.504Z,29.20
2023-02-06T12:10:49.936Z,36.30
2023-02-06T12:20:59.399Z,37.70
2023-02-06T12:41:18.901Z,33.00
2023-02-06T12:51:27.600Z,34.20
2023-02-06T13:01:49.031Z,39.20
2023-02-06T13:12:07.476Z,32.30
2023-02-06T13:22:45.396Z,38.70
2023-02-06T13:32:53.505Z,29.40
2023-02-06T13:42:58.334Z,32.40
2023-02-06T13:53:12.899Z,29.70
2023-02-06T14:03:23.001Z,35.30
2023-02-06T14:13:35.476Z,35.90
2023-02-06T14:23:44.746Z,30.50
2023-02-06T14:34:04.530Z,34.30
2023-02-06T14:44:13.147Z,36.10
2023-02-06T14:54:29.488Z,33.50
2023-02-06T15:04:45.767Z,31.10
2023-02-06T15:14:53.922Z,37.90
2023-02-06T15:25:06.345Z,33.80
2023-02-06T15:35:19.406Z,38.50
2023-02-06T15:45:30.285Z,37.60
2023-02-06T15:55:39.467Z,44.90
2023-02-06T16:05:46.910Z,43.10
2023-02-06T16:16:19.535Z,40.50
2023-02-06T16:26:28.928Z,30.10
2023-02-06T16:46:42.275Z,146.60
2023-02-06T16:56:50.185Z,120.30
2023-02-06T17:06:58.237Z,163.40
2023-02-06T17:17:05.421Z,128.10
2023-02-06T17:27:16.572Z,171.00
2023-02-06T17:37:23.317Z,130.10
2023-02-06T17:47:30.578Z,158.10
2023-02-06T17:57:37.278Z,143.30
2023-02-06T18:07:44.617Z,125.20
2023-02-06T18:17:52.095Z,175.20
2023-02-06T18:27:59.222Z,177.30
2023-02-06T18:38:06.118Z,184.50
2023-02-06T18:48:14.704Z,185.40
2023-02-06T18:58:22.448Z,148.00
2023-02-06T19:08:28.072Z,138.70
2023-02-06T19:18:38.947Z,138.90
2023-02-06T19:28:48.965Z,159.60
2023-02-06T19:38:57.322Z,157.70
2023-02-06T19:49:06.246Z,167.10
2023-02-06T20:09:22.819Z,158.90
2023-02-06T20:29:39.177Z,169.40
2023-02-06T20:39:46.871Z,164.30
2023-02-06T20:49:51.500Z,163.10
2023-02-06T20:59:58.907Z,165.10
2023-02-06T21:20:13.980Z,170.90
2023-02-06T21:30:20.494Z,192.80
2023-02-06T21:40:28.185Z,184.00
2023-02-06T21:50:38.155Z,199.50
2023-02-06T22:00:43.589Z,203.10
2023-02-06T22:10:50.762Z,211.30
2023-02-06T22:21:03.377Z,175.70
2023-02-06T22:31:08.348Z,141.30
2023-02-06T22:41:18.078Z,305.30
2023-02-06T22:51:24.094Z,501.10
2023-02-06T23:01:33.364Z,390.40
2023-02-06T23:11:39.093Z,386.80
2023-02-06T23:21:47.729Z,367.70
2023-02-06T23:42:01.939Z,333.70
2023-02-06T23:52:08.084Z,331.10
